Time;durP1;ratioP1;P1;durP2;ratioP2;P2;SDS_P1;SDS_P2;PMS_P1;PMS_P2;Temp;Humidity;BMP_temperature;BMP_pressure;BME280_temperature;BME280_humidity;BME280_pressure;Samples;Min_cycle;Max_cycle;Signal;HPM_P1;HPM_P2
2022/12/28 00:01:53;;;;;;;3.90;1.00;;;8.00;81.80;;;;;;5044908;28;20040;-58
2022/12/28 00:04:18;;;;;;;1.77;0.88;;;8.00;82.00;;;;;;5047980;28;20060;-59
2022/12/28 00:06:46;;;;;;;2.83;1.17;;;8.00;82.00;;;;;;5046927;28;20052;-64
2022/12/28 00:09:12;;;;;;;2.50;1.10;;;8.00;82.10;;;;;;5044295;28;20485;-59
2022/12/28 00:11:38;;;;;;;0.88;0.77;;;8.00;82.20;;;;;;5048950;28;20044;-64
2022/12/28 00:14:04;;;;;;;1.95;1.55;;;8.00;82.50;;;;;;5048989;28;20241;-58
2022/12/28 00:16:38;;;;;;;1.95;1.27;;;8.10;82.70;;;;;;5050635;28;20403;-59
2022/12/28 00:19:10;;;;;;;1.92;0.90;;;8.00;82.70;;;;;;5050661;28;20028;-64
2022/12/28 00:21:37;;;;;;;4.32;1.80;;;8.00;82.80;;;;;;5048351;28;20025;-58
2022/12/28 00:24:03;;;;;;;3.55;1.35;;;8.00;82.80;;;;;;5049543;28;20029;-63
2022/12/28 00:26:31;;;;;;;2.05;1.45;;;8.00;82.90;;;;;;5043754;28;20026;-59
2022/12/28 00:28:57;;;;;;;4.57;1.63;;;8.00;83.00;;;;;;5040850;28;20508;-59
2022/12/28 00:31:23;;;;;;;2.03;1.58;;;8.00;83.10;;;;;;5053716;28;20497;-58
2022/12/28 00:33:49;;;;;;;2.05;1.00;;;8.00;83.20;;;;;;5048716;28;20083;-62
2022/12/28 00:36:15;;;;;;;1.35;1.25;;;8.00;83.20;;;;;;5051813;28;20051;-64
2022/12/28 00:38:41;;;;;;;2.47;1.05;;;8.00;83.20;;;;;;5048768;28;20083;-58
2022/12/28 00:41:08;;;;;;;1.95;1.30;;;8.00;83.20;;;;;;5053319;28;20021;-63
2022/12/28 00:43:34;;;;;;;2.75;1.45;;;8.00;83.20;;;;;;5051826;28;20022;-64
2022/12/28 00:46:01;;;;;;;2.75;1.25;;;8.00;83.40;;;;;;5050359;28;20455;-63
2022/12/28 00:48:27;;;;;;;3.33;1.63;;;8.00;83.40;;;;;;5048475;28;20587;-63
2022/12/28 00:50:59;;;;;;;2.88;1.63;;;8.10;83.40;;;;;;5054027;28;20051;-59
2022/12/28 00:53:25;;;;;;;3.92;1.45;;;8.10;83.30;;;;;;5051306;28;20128;-59
2022/12/28 00:55:50;;;;;;;3.00;2.03;;;8.00;83.40;;;;;;5050783;28;20124;-64
2022/12/28 00:58:16;;;;;;;2.53;1.45;;;8.10;83.50;;;;;;5049568;28;20025;-64
2022/12/28 01:00:42;;;;;;;1.80;1.13;;;8.10;83.40;;;;;;5051011;28;20053;-58
2022/12/28 01:03:07;;;;;;;3.63;1.63;;;8.10;83.40;;;;;;5052046;28;20060;-63
2022/12/28 01:05:33;;;;;;;2.25;1.15;;;8.10;83.40;;;;;;5041942;28;20025;-64
2022/12/28 01:07:59;;;;;;;1.25;1.15;;;8.10;83.50;;;;;;5050706;28;20033;-63
2022/12/28 01:10:24;;;;;;;2.22;1.75;;;8.10;83.40;;;;;;5050488;28;20376;-64
2022/12/28 01:12:50;;;;;;;1.17;0.65;;;8.10;83.40;;;;;;5050413;28;20086;-62
2022/12/28 01:15:16;;;;;;;14.30;1.25;;;8.10;83.40;;;;;;5050974;28;20029;-59
2022/12/28 01:17:42;;;;;;;3.33;1.40;;;8.10;83.40;;;;;;5054807;28;20116;-59
2022/12/28 01:20:08;;;;;;;2.30;1.40;;;8.10;83.40;;;;;;5055047;28;20021;-64
2022/12/28 01:22:34;;;;;;;2.92;1.40;;;8.10;83.50;;;;;;5055872;28;20040;-59
2022/12/28 01:24:59;;;;;;;1.50;1.25;;;8.10;83.40;;;;;;5052120;28;20436;-64
2022/12/28 01:27:25;;;;;;;1.63;1.13;;;8.20;83.50;;;;;;5048232;28;20029;-59
2022/12/28 01:29:51;;;;;;;1.45;1.00;;;8.20;83.40;;;;;;5064811;28;20483;-59
2022/12/28 01:32:16;;;;;;;2.45;1.08;;;8.20;83.30;;;;;;5056251;28;20482;-59
2022/12/28 01:34:42;;;;;;;1.98;1.10;;;8.30;83.20;;;;;;5047581;28;20033;-63
2022/12/28 01:37:07;;;;;;;1.67;1.45;;;8.30;83.30;;;;;;5051651;28;20029;-63
2022/12/28 01:39:33;;;;;;;2.97;1.33;;;8.30;83.40;;;;;;5047665;28;20036;-64
2022/12/28 01:42:00;;;;;;;1.70;1.33;;;8.30;83.40;;;;;;5045797;28;20021;-59
2022/12/28 01:44:25;;;;;;;1.42;0.88;;;8.30;83.50;;;;;;5054038;28;20022;-58
2022/12/28 01:46:59;;;;;;;3.20;1.27;;;8.30;83.50;;;;;;5057214;28;20034;-58
2022/12/28 01:49:28;;;;;;;2.35;1.30;;;8.30;83.40;;;;;;5052609;28;20033;-63
2022/12/28 01:52:22;;;;;;;3.20;1.73;;;8.40;83.50;;;;;;5053495;28;20128;-58
2022/12/28 01:55:13;;;;;;;3.97;1.23;;;8.40;83.30;;;;;;5052908;28;20507;-63
2022/12/28 01:57:50;;;;;;;2.95;1.65;;;8.40;83.30;;;;;;5037719;28;20046;-63
2022/12/28 02:00:17;;;;;;;2.53;1.40;;;8.50;83.30;;;;;;5048091;28;20495;-64
2022/12/28 02:02:52;;;;;;;2.08;1.23;;;8.50;83.20;;;;;;5051726;28;20099;-63
2022/12/28 02:05:20;;;;;;;2.05;1.38;;;8.50;83.20;;;;;;5046534;28;20048;-63
2022/12/28 02:07:50;;;;;;;8.13;1.50;;;8.50;83.20;;;;;;5049304;28;20386;-58
2022/12/28 02:10:18;;;;;;;3.35;1.48;;;8.50;83.20;;;;;;5049883;28;20036;-56
2022/12/28 02:12:44;;;;;;;2.13;1.35;;;8.50;83.30;;;;;;5050649;28;20124;-58
2022/12/28 02:15:10;;;;;;;6.53;1.58;;;8.50;83.20;;;;;;5057559;28;20589;-58
2022/12/28 02:17:36;;;;;;;2.90;1.15;;;8.60;83.20;;;;;;5049840;28;20029;-63
2022/12/28 02:20:02;;;;;;;3.53;1.63;;;8.60;83.00;;;;;;5054385;28;20017;-59
2022/12/28 02:22:34;;;;;;;1.75;1.20;;;8.60;83.60;;;;;;5051151;28;20036;-58
2022/12/28 02:25:07;;;;;;;0.90;0.90;;;8.60;83.20;;;;;;5054472;28;20523;-58
2022/12/28 02:28:00;;;;;;;2.45;1.27;;;8.60;83.20;;;;;;5041144;28;20023;-58
2022/12/28 02:30:27;;;;;;;8.13;1.33;;;8.70;83.30;;;;;;5057564;28;20039;-59
2022/12/28 02:33:05;;;;;;;1.77;1.00;;;8.60;83.40;;;;;;5055752;28;20017;-63
2022/12/28 02:35:42;;;;;;;3.40;1.10;;;8.60;83.30;;;;;;5055841;28;20040;-58
2022/12/28 02:38:18;;;;;;;1.35;0.90;;;8.70;83.40;;;;;;5053180;28;20033;-58
2022/12/28 02:40:48;;;;;;;1.77;1.45;;;8.70;83.40;;;;;;5039137;28;20064;-58
2022/12/28 02:43:14;;;;;;;2.38;1.23;;;8.70;83.40;;;;;;5056342;28;20111;-63
2022/12/28 02:51:36;;;;;;;10.20;1.88;;;8.70;83.50;;;;;;5053923;28;20032;-63
2022/12/28 02:57:30;;;;;;;2.78;1.30;;;8.70;83.90;;;;;;5046289;28;20162;-63
2022/12/28 03:00:06;;;;;;;1.63;1.40;;;8.70;84.10;;;;;;5046025;28;20037;-63
2022/12/28 03:02:43;;;;;;;1.75;1.42;;;8.70;84.30;;;;;;5052858;28;20025;-63
2022/12/28 03:08:35;;;;;;;2.53;1.35;;;8.70;84.70;;;;;;5052263;28;20195;-59
2022/12/28 03:11:07;;;;;;;1.88;1.50;;;8.60;85.60;;;;;;5049414;28;20017;-63
2022/12/28 03:13:46;;;;;;;1.60;1.23;;;8.60;85.30;;;;;;5065989;28;20059;-63
2022/12/28 03:16:28;;;;;;;3.17;1.58;;;8.60;85.50;;;;;;5051566;28;20096;-58
2022/12/28 03:32:57;;;;;;;2.53;1.27;;;8.50;87.30;;;;;;5036354;28;20052;-58
2022/12/28 03:35:29;;;;;;;3.40;1.35;;;8.50;87.50;;;;;;5048000;28;20032;-63
2022/12/28 03:38:00;;;;;;;1.17;1.08;;;8.50;87.50;;;;;;5050737;28;20248;-63
2022/12/28 03:40:40;;;;;;;2.55;1.35;;;8.60;87.50;;;;;;5052223;28;20024;-58
2022/12/28 03:46:17;;;;;;;2.83;1.45;;;8.60;87.30;;;;;;5040952;28;20091;-63
2022/12/28 03:48:44;;;;;;;3.60;1.98;;;8.60;87.50;;;;;;5048382;28;20051;-63
2022/12/28 03:51:13;;;;;;;3.72;1.10;;;8.60;88.00;;;;;;5058345;28;20499;-63
2022/12/28 03:53:44;;;;;;;1.08;1.00;;;8.60;88.10;;;;;;5059635;28;20423;-63
2022/12/28 03:56:11;;;;;;;1.20;1.10;;;8.60;88.30;;;;;;5057384;28;20082;-58
2022/12/28 03:58:37;;;;;;;1.50;0.90;;;8.60;88.40;;;;;;5057535;28;20033;-58
2022/12/28 04:01:03;;;;;;;1.20;1.10;;;8.60;88.30;;;;;;5056893;28;20025;-58
2022/12/28 04:03:29;;;;;;;1.45;1.27;;;8.70;88.30;;;;;;5054812;28;20403;-58
2022/12/28 04:05:55;;;;;;;1.67;1.17;;;8.70;88.30;;;;;;5044106;28;20047;-63
2022/12/28 04:08:20;;;;;;;2.20;1.33;;;8.70;88.40;;;;;;5054298;28;20060;-58
2022/12/28 04:10:46;;;;;;;1.67;1.23;;;8.80;88.60;;;;;;5053489;28;20522;-58
2022/12/28 04:13:12;;;;;;;2.03;1.42;;;8.70;88.60;;;;;;5048940;28;20060;-63
2022/12/28 04:15:38;;;;;;;1.50;1.13;;;8.80;88.80;;;;;;5049387;28;20021;-58
2022/12/28 04:18:04;;;;;;;2.00;1.20;;;8.80;88.80;;;;;;5050931;28;20017;-63
2022/12/28 04:20:29;;;;;;;3.65;1.40;;;8.80;89.00;;;;;;5054486;28;20069;-63
2022/12/28 04:22:55;;;;;;;1.40;1.23;;;8.80;89.20;;;;;;5048138;28;20532;-58
2022/12/28 04:25:21;;;;;;;2.42;1.10;;;8.80;89.30;;;;;;5048752;28;20039;-58
2022/12/28 04:27:47;;;;;;;2.22;1.42;;;8.80;89.40;;;;;;5045702;28;20047;-62
2022/12/28 04:30:12;;;;;;;1.50;1.20;;;8.80;89.50;;;;;;5045643;28;20034;-59
2022/12/28 04:32:38;;;;;;;1.85;1.35;;;8.80;89.50;;;;;;5049705;28;20040;-58
2022/12/28 04:35:04;;;;;;;2.00;1.58;;;8.90;89.60;;;;;;5062407;28;20121;-63
2022/12/28 04:37:30;;;;;;;2.55;1.58;;;8.90;89.70;;;;;;5046969;28;20036;-63
2022/12/28 04:39:55;;;;;;;2.33;1.35;;;8.90;89.60;;;;;;5042474;28;20424;-64
2022/12/28 04:42:21;;;;;;;2.05;1.23;;;8.90;89.80;;;;;;5043753;28;20079;-63
2022/12/28 04:44:47;;;;;;;2.53;1.70;;;8.90;89.90;;;;;;5055895;28;20143;-63
2022/12/28 04:47:12;;;;;;;1.52;1.20;;;8.90;90.00;;;;;;5058354;28;20025;-63
2022/12/28 04:49:38;;;;;;;2.70;1.33;;;8.90;90.00;;;;;;5054397;28;20119;-63
2022/12/28 04:52:04;;;;;;;1.90;1.52;;;8.90;90.00;;;;;;5050703;28;20029;-63
2022/12/28 04:54:29;;;;;;;2.80;1.60;;;9.00;90.10;;;;;;5056810;28;20442;-58
2022/12/28 04:56:55;;;;;;;2.22;1.63;;;9.00;90.10;;;;;;5058198;28;20033;-63
2022/12/28 04:59:21;;;;;;;3.05;1.35;;;9.00;90.10;;;;;;5054221;28;20570;-63
2022/12/28 05:01:46;;;;;;;3.30;1.38;;;9.00;90.00;;;;;;5049139;28;20490;-63
2022/12/28 05:04:12;;;;;;;2.03;1.15;;;9.00;90.20;;;;;;5050669;28;20102;-59
2022/12/28 05:06:38;;;;;;;3.85;1.38;;;9.00;90.20;;;;;;5040529;28;20037;-58
2022/12/28 05:09:03;;;;;;;1.85;1.40;;;9.00;90.30;;;;;;5058616;28;20024;-59
2022/12/28 05:11:30;;;;;;;3.92;2.25;;;9.00;90.20;;;;;;5054324;28;20101;-58
2022/12/28 05:13:56;;;;;;;2.00;1.33;;;9.10;90.20;;;;;;5056016;28;20036;-58
2022/12/28 05:16:24;;;;;;;3.88;1.75;;;9.10;90.30;;;;;;5053506;28;20566;-58
2022/12/28 05:18:50;;;;;;;2.78;1.40;;;9.10;90.20;;;;;;5049978;28;20044;-63
2022/12/28 05:21:22;;;;;;;2.13;1.67;;;9.20;90.30;;;;;;5052509;28;20033;-63
2022/12/28 05:23:48;;;;;;;1.58;1.48;;;9.20;90.30;;;;;;5056065;28;20059;-63
2022/12/28 05:26:19;;;;;;;2.78;1.67;;;9.20;90.30;;;;;;5053301;28;20100;-63
2022/12/28 05:28:45;;;;;;;1.95;1.33;;;9.20;90.30;;;;;;5053779;28;20059;-58
2022/12/28 05:31:13;;;;;;;1.65;1.50;;;9.20;90.30;;;;;;5052887;28;20465;-64
2022/12/28 05:33:40;;;;;;;1.60;1.38;;;9.20;90.30;;;;;;5052551;28;20090;-63
2022/12/28 05:36:17;;;;;;;2.20;1.30;;;9.30;90.30;;;;;;5052237;28;20427;-58
2022/12/28 05:38:43;;;;;;;6.22;1.38;;;9.30;90.30;;;;;;5053921;28;21344;-63
2022/12/28 05:41:21;;;;;;;1.38;1.25;;;9.30;90.30;;;;;;5041280;28;20036;-63
2022/12/28 05:43:48;;;;;;;6.72;1.67;;;9.30;90.30;;;;;;5054980;28;20029;-58
2022/12/28 05:46:25;;;;;;;2.17;1.63;;;9.40;90.30;;;;;;5052163;28;20017;-58
2022/12/28 05:48:53;;;;;;;5.13;2.03;;;9.40;90.30;;;;;;5044397;28;20492;-58
2022/12/28 05:51:23;;;;;;;2.28;1.60;;;9.40;90.30;;;;;;5051492;28;20050;-58
2022/12/28 05:53:49;;;;;;;2.63;1.90;;;9.40;90.30;;;;;;5050747;28;20083;-58
2022/12/28 05:56:16;;;;;;;2.22;1.60;;;9.40;90.30;;;;;;5052294;28;20029;-58
2022/12/28 05:58:44;;;;;;;1.65;1.38;;;9.40;90.30;;;;;;5049651;28;20025;-63
2022/12/28 06:01:14;;;;;;;1.73;1.63;;;9.40;90.30;;;;;;5049958;28;20341;-63
2022/12/28 06:03:40;;;;;;;2.92;1.58;;;9.40;90.30;;;;;;5048573;28;20098;-63
2022/12/28 06:06:08;;;;;;;1.00;0.90;;;9.40;90.40;;;;;;5054099;28;20111;-59
2022/12/28 06:08:34;;;;;;;2.05;1.48;;;9.50;90.40;;;;;;5054566;28;20050;-58
2022/12/28 06:11:05;;;;;;;2.70;1.75;;;9.50;90.40;;;;;;5052872;28;20021;-63
2022/12/28 06:13:32;;;;;;;2.47;1.35;;;9.50;90.40;;;;;;5052425;28;20028;-62
2022/12/28 06:15:58;;;;;;;1.00;0.95;;;9.50;90.50;;;;;;5051020;28;20384;-64
2022/12/28 06:18:27;;;;;;;1.23;1.10;;;9.50;90.50;;;;;;5055287;28;20025;-58
2022/12/28 06:20:53;;;;;;;2.03;1.30;;;9.50;90.70;;;;;;5051813;28;20029;-63
2022/12/28 06:23:19;;;;;;;2.25;1.55;;;9.50;90.70;;;;;;5051363;28;20043;-63
2022/12/28 06:25:45;;;;;;;1.33;1.23;;;9.50;90.70;;;;;;5053076;28;20082;-58
2022/12/28 06:28:11;;;;;;;3.22;1.55;;;9.50;90.70;;;;;;5047936;28;20127;-58
2022/12/28 06:30:36;;;;;;;1.25;1.15;;;9.50;90.70;;;;;;5054333;28;20033;-63
2022/12/28 06:33:02;;;;;;;2.63;1.38;;;9.50;90.70;;;;;;5049158;28;20040;-63
2022/12/28 06:35:28;;;;;;;1.58;1.05;;;9.60;90.70;;;;;;5053505;28;20446;-63
2022/12/28 06:37:54;;;;;;;1.30;0.95;;;9.60;90.70;;;;;;5053384;28;20025;-63
2022/12/28 06:40:19;;;;;;;4.82;0.90;;;9.60;90.60;;;;;;5053032;28;20116;-58
2022/12/28 06:42:45;;;;;;;3.08;1.75;;;9.70;90.60;;;;;;5048251;28;20033;-63
2022/12/28 06:45:11;;;;;;;1.35;1.25;;;9.60;90.60;;;;;;5052395;28;20063;-64
2022/12/28 06:47:36;;;;;;;1.15;1.05;;;9.70;90.70;;;;;;5049832;28;20025;-59
2022/12/28 06:50:03;;;;;;;1.30;1.20;;;9.70;90.70;;;;;;5050155;28;20029;-58
2022/12/28 06:52:29;;;;;;;1.60;1.27;;;9.70;90.70;;;;;;5044062;28;20026;-59
2022/12/28 06:54:54;;;;;;;1.25;1.00;;;9.70;90.70;;;;;;5051587;28;20258;-63
2022/12/28 06:57:20;;;;;;;1.05;0.95;;;9.70;90.70;;;;;;5041976;28;20037;-63
2022/12/28 06:59:46;;;;;;;1.42;1.05;;;9.70;90.60;;;;;;5047028;28;20025;-58
2022/12/28 07:02:12;;;;;;;1.15;1.02;;;9.80;90.60;;;;;;5044858;28;20025;-59
2022/12/28 07:04:37;;;;;;;1.70;1.15;;;9.80;90.60;;;;;;5049950;28;20057;-58
2022/12/28 07:07:03;;;;;;;3.05;0.80;;;9.80;90.50;;;;;;5047887;28;20362;-59
2022/12/28 07:09:28;;;;;;;2.35;1.20;;;9.80;90.50;;;;;;5050028;28;20475;-59
2022/12/28 07:11:54;;;;;;;3.03;1.58;;;9.90;90.40;;;;;;5050479;28;20033;-59
2022/12/28 07:14:20;;;;;;;1.13;0.85;;;9.90;90.40;;;;;;5044790;28;20408;-59
2022/12/28 07:16:47;;;;;;;1.60;1.33;;;9.90;90.40;;;;;;5045921;28;20045;-63
2022/12/28 07:19:13;;;;;;;1.45;1.35;;;9.90;90.40;;;;;;5048459;28;20113;-64
2022/12/28 07:21:39;;;;;;;1.85;0.90;;;9.90;90.40;;;;;;5048884;28;20123;-63
2022/12/28 07:24:06;;;;;;;3.45;1.15;;;9.90;90.40;;;;;;5051582;28;20083;-63
2022/12/28 07:26:34;;;;;;;2.22;1.00;;;9.90;90.60;;;;;;5046725;28;20028;-63
2022/12/28 07:29:01;;;;;;;1.27;1.15;;;10.00;90.40;;;;;;5046941;28;20513;-63
2022/12/28 07:31:30;;;;;;;1.23;0.95;;;10.00;90.40;;;;;;5047175;28;20025;-59
2022/12/28 07:33:58;;;;;;;0.80;0.80;;;10.00;90.40;;;;;;5044179;28;20029;-60
2022/12/28 07:36:26;;;;;;;1.50;0.90;;;10.00;90.40;;;;;;5053271;28;20091;-60
2022/12/28 07:38:53;;;;;;;1.73;1.25;;;10.00;90.40;;;;;;5030379;28;20514;-64
2022/12/28 07:41:22;;;;;;;1.35;1.02;;;10.00;90.40;;;;;;5045879;28;20040;-61
2022/12/28 07:43:48;;;;;;;1.65;1.27;;;10.00;90.40;;;;;;5047973;28;20112;-68
2022/12/28 07:46:16;;;;;;;3.33;1.10;;;10.00;90.50;;;;;;5049356;28;20032;-66
2022/12/28 07:48:43;;;;;;;2.53;1.02;;;10.00;90.50;;;;;;5047477;28;20476;-67
2022/12/28 07:51:24;;;;;;;2.35;0.95;;;10.00;90.60;;;;;;5051980;28;20136;-70
2022/12/28 07:53:51;;;;;;;1.20;1.00;;;10.00;90.60;;;;;;5048267;28;20028;-60
2022/12/28 07:56:18;;;;;;;1.65;1.10;;;10.00;90.60;;;;;;5048201;28;20114;-61
2022/12/28 07:58:55;;;;;;;1.10;0.90;;;10.00;90.60;;;;;;5044716;28;20024;-65
2022/12/28 08:01:23;;;;;;;2.03;1.10;;;10.00;90.60;;;;;;5058422;28;20126;-61
2022/12/28 08:03:53;;;;;;;4.10;1.00;;;10.10;90.60;;;;;;5046640;28;20040;-58
2022/12/28 08:06:24;;;;;;;1.45;1.00;;;10.10;90.50;;;;;;5042077;28;20028;-65
2022/12/28 08:08:55;;;;;;;1.80;1.17;;;10.10;90.50;;;;;;5045579;28;20483;-60
2022/12/28 08:11:23;;;;;;;1.30;1.10;;;10.20;90.40;;;;;;5054149;28;20503;-59
2022/12/28 08:13:51;;;;;;;2.20;1.40;;;10.20;90.40;;;;;;5045960;28;20110;-64
2022/12/28 08:16:19;;;;;;;2.03;1.40;;;10.20;90.40;;;;;;5047727;28;20644;-60
2022/12/28 08:18:46;;;;;;;3.47;1.58;;;10.20;90.40;;;;;;5039999;28;20041;-60
2022/12/28 08:21:16;;;;;;;1.77;1.10;;;10.20;90.40;;;;;;5049709;28;20464;-63
2022/12/28 08:23:41;;;;;;;1.65;1.40;;;10.20;90.40;;;;;;5043190;28;20460;-64
2022/12/28 08:26:10;;;;;;;3.85;1.05;;;10.20;90.40;;;;;;5024918;28;20031;-64
2022/12/28 08:28:37;;;;;;;3.78;1.60;;;10.20;90.40;;;;;;5034021;28;20416;-63
2022/12/28 08:31:28;;;;;;;3.78;1.48;;;10.20;90.40;;;;;;5042448;28;20021;-63
2022/12/28 08:33:55;;;;;;;2.80;1.80;;;10.20;90.30;;;;;;5031327;28;20360;-63
2022/12/28 08:36:21;;;;;;;1.02;0.93;;;10.20;90.40;;;;;;5035862;28;20084;-64
2022/12/28 08:38:47;;;;;;;4.90;1.40;;;10.20;90.40;;;;;;5036010;28;20400;-65
2022/12/28 08:41:16;;;;;;;1.10;1.00;;;10.20;90.40;;;;;;5046231;28;20645;-62
2022/12/28 08:43:42;;;;;;;4.05;1.55;;;10.20;90.50;;;;;;5040687;28;20028;-60
2022/12/28 08:46:40;;;;;;;1.48;0.82;;;10.20;90.50;;;;;;5047024;28;20033;-59
2022/12/28 08:49:06;;;;;;;1.95;1.02;;;10.30;90.50;;;;;;5044492;28;20032;-61
2022/12/28 08:51:34;;;;;;;2.78;1.58;;;10.30;90.50;;;;;;5043455;28;20508;-65
2022/12/28 08:54:01;;;;;;;1.98;1.52;;;10.30;90.50;;;;;;5038155;28;20044;-60
2022/12/28 08:56:34;;;;;;;1.20;0.90;;;10.30;90.50;;;;;;5046557;28;20139;-63
2022/12/28 08:59:01;;;;;;;2.85;1.60;;;10.30;90.50;;;;;;5039314;28;20112;-62
2022/12/28 09:01:32;;;;;;;2.42;1.50;;;10.30;90.50;;;;;;5049174;28;20070;-63
2022/12/28 09:03:59;;;;;;;1.63;1.10;;;10.30;90.40;;;;;;5043761;28;20083;-59
2022/12/28 09:06:34;;;;;;;1.30;1.20;;;10.30;90.40;;;;;;5043868;28;20388;-64
2022/12/28 09:09:00;;;;;;;2.80;1.27;;;10.40;90.50;;;;;;5043654;28;20391;-64
2022/12/28 09:11:26;;;;;;;1.52;1.10;;;10.40;90.50;;;;;;5047385;28;20021;-64
2022/12/28 09:13:52;;;;;;;1.73;0.93;;;10.30;90.40;;;;;;5046046;28;20045;-64
2022/12/28 09:16:22;;;;;;;1.45;0.90;;;10.40;90.40;;;;;;5048203;28;20087;-64
2022/12/28 09:18:53;;;;;;;0.85;0.85;;;10.40;90.40;;;;;;5048655;28;20033;-64
2022/12/28 09:21:20;;;;;;;2.75;1.10;;;10.40;90.40;;;;;;5048669;28;20484;-64
2022/12/28 09:23:47;;;;;;;1.88;1.30;;;10.40;90.40;;;;;;5048001;28;20082;-59
2022/12/28 09:26:24;;;;;;;1.45;1.00;;;10.40;90.40;;;;;;5048111;28;20078;-64
2022/12/28 09:29:00;;;;;;;1.80;1.10;;;10.40;90.40;;;;;;5053864;28;20447;-59
2022/12/28 09:31:29;;;;;;;0.75;0.60;;;10.40;90.40;;;;;;5046460;28;20029;-62
2022/12/28 09:33:57;;;;;;;0.95;0.95;;;10.40;90.50;;;;;;5047968;28;20065;-58
2022/12/28 09:36:27;;;;;;;2.17;1.10;;;10.40;90.50;;;;;;5048154;28;20037;-59
2022/12/28 09:38:53;;;;;;;1.88;0.98;;;10.40;90.50;;;;;;5050480;28;20029;-64
2022/12/28 09:41:28;;;;;;;1.38;1.15;;;10.30;90.50;;;;;;5060819;28;20078;-64
2022/12/28 09:44:22;;;;;;;2.00;1.17;;;10.40;90.60;;;;;;5049940;28;20033;-64
2022/12/28 09:47:16;;;;;;;2.05;1.23;;;10.30;90.70;;;;;;5046441;28;20761;-59
2022/12/28 09:50:17;;;;;;;1.60;0.95;;;10.30;90.70;;;;;;5040984;28;20042;-59
2022/12/28 09:53:03;;;;;;;1.80;1.23;;;10.30;90.70;;;;;;5048380;28;20040;-59
2022/12/28 09:55:30;;;;;;;3.05;1.45;;;10.30;90.80;;;;;;5046772;28;20511;-64
2022/12/28 09:57:58;;;;;;;2.05;1.48;;;10.30;90.80;;;;;;5051596;28;20035;-64
2022/12/28 10:00:27;;;;;;;2.67;1.38;;;10.40;90.80;;;;;;5051534;28;20075;-64
2022/12/28 10:02:59;;;;;;;9.60;1.20;;;10.30;90.70;;;;;;5049043;28;20021;-64
2022/12/28 10:05:26;;;;;;;;;;;10.40;90.80;;;;;;5052994;28;20534;-59
2022/12/28 10:07:54;;;;;;;2.95;1.45;;;10.40;90.70;;;;;;5048534;28;20540;-59
2022/12/28 10:10:22;;;;;;;2.13;1.13;;;10.40;90.80;;;;;;5053550;28;20052;-64
2022/12/28 10:12:49;;;;;;;2.70;1.23;;;10.40;90.70;;;;;;5051611;28;20453;-64
2022/12/28 10:15:15;;;;;;;10.52;1.73;;;10.40;90.70;;;;;;5053594;28;20059;-65
2022/12/28 10:17:41;;;;;;;3.08;0.90;;;10.40;90.70;;;;;;5054326;28;20064;-64
2022/12/28 10:20:17;;;;;;;3.42;1.08;;;10.40;90.70;;;;;;5050505;28;20044;-64
2022/12/28 10:22:47;;;;;;;2.63;1.20;;;10.40;90.70;;;;;;5047313;28;20083;-64
2022/12/28 10:25:18;;;;;;;1.52;1.13;;;10.40;90.70;;;;;;5046367;28;20064;-64
2022/12/28 10:27:44;;;;;;;1.90;1.02;;;10.40;90.70;;;;;;5043124;28;20033;-59
2022/12/28 10:30:18;;;;;;;5.35;1.52;;;10.50;90.80;;;;;;5050366;28;20043;-65
2022/12/28 10:32:58;;;;;;;2.15;1.25;;;10.50;90.70;;;;;;5045801;28;20043;-59
2022/12/28 10:35:34;;;;;;;1.52;1.10;;;10.50;90.70;;;;;;5049060;28;20032;-59
2022/12/28 10:38:06;;;;;;;1.05;0.85;;;10.40;90.80;;;;;;5051309;28;20464;-65
2022/12/28 10:40:36;;;;;;;1.10;1.00;;;10.50;90.80;;;;;;5044255;28;20040;-65
2022/12/28 10:43:03;;;;;;;1.90;1.25;;;10.40;90.90;;;;;;5045302;28;20380;-59
2022/12/28 10:45:38;;;;;;;1.63;1.15;;;10.40;90.90;;;;;;5047738;28;20044;-59
2022/12/28 10:48:27;;;;;;;1.10;1.00;;;10.50;90.90;;;;;;5046745;28;20048;-64
2022/12/28 10:51:14;;;;;;;1.05;0.90;;;10.50;90.80;;;;;;5047681;28;20017;-65
2022/12/28 10:53:45;;;;;;;1.27;1.10;;;10.40;90.90;;;;;;5046673;28;20219;-59
2022/12/28 10:56:11;;;;;;;1.33;0.73;;;10.50;90.90;;;;;;5045269;28;20013;-64
2022/12/28 10:58:41;;;;;;;1.00;0.90;;;10.50;90.90;;;;;;5042433;28;20040;-65
2022/12/28 11:01:13;;;;;;;0.98;0.90;;;10.50;90.90;;;;;;5049325;28;20072;-65
2022/12/28 11:03:42;;;;;;;0.55;0.55;;;10.50;90.90;;;;;;5049132;28;20397;-64
2022/12/28 11:06:17;;;;;;;2.00;0.93;;;10.50;90.90;;;;;;5052364;28;20074;-59
2022/12/28 11:08:45;;;;;;;0.70;0.70;;;10.60;90.90;;;;;;5044616;28;20037;-65
2022/12/28 11:11:20;;;;;;;1.08;0.98;;;10.50;90.80;;;;;;5047503;28;20025;-64
2022/12/28 11:13:54;;;;;;;3.20;0.80;;;10.60;90.80;;;;;;5046789;28;20116;-59
2022/12/28 11:16:20;;;;;;;0.80;0.77;;;10.60;90.80;;;;;;5047856;28;20078;-59
2022/12/28 11:18:46;;;;;;;1.50;0.70;;;10.60;90.80;;;;;;5050297;28;20033;-59
2022/12/28 11:21:18;;;;;;;1.80;0.73;;;10.60;90.80;;;;;;5048737;28;20108;-58
2022/12/28 11:23:46;;;;;;;1.55;1.30;;;10.60;90.80;;;;;;5043477;28;20026;-59
2022/12/28 11:26:12;;;;;;;1.17;0.60;;;10.60;90.80;;;;;;5047230;28;20510;-64
2022/12/28 11:28:44;;;;;;;3.83;0.93;;;10.60;90.90;;;;;;5047529;28;20029;-59
2022/12/28 11:31:19;;;;;;;0.80;0.50;;;10.60;90.90;;;;;;5044830;28;20029;-59
2022/12/28 11:33:49;;;;;;;0.75;0.55;;;10.60;90.80;;;;;;5042608;28;20036;-59
2022/12/28 11:36:18;;;;;;;1.08;0.60;;;10.60;90.80;;;;;;5043631;28;20466;-59
2022/12/28 11:38:46;;;;;;;1.40;0.77;;;10.70;90.80;;;;;;5048484;28;20021;-59
2022/12/28 11:41:39;;;;;;;2.95;0.93;;;10.60;90.80;;;;;;5046950;28;20041;-59
2022/12/28 11:44:18;;;;;;;0.60;0.57;;;10.70;90.80;;;;;;5041128;28;20434;-64
2022/12/28 11:47:00;;;;;;;0.63;0.60;;;10.60;90.80;;;;;;5043253;28;20055;-64
2022/12/28 11:49:35;;;;;;;0.57;0.57;;;10.70;90.80;;;;;;5041469;28;20346;-60
2022/12/28 11:52:16;;;;;;;0.50;0.40;;;10.70;90.80;;;;;;5045637;28;20040;-59
2022/12/28 11:54:56;;;;;;;0.88;0.60;;;10.70;90.70;;;;;;5045192;28;20514;-59
2022/12/28 11:57:41;;;;;;;0.85;0.55;;;10.70;90.70;;;;;;5040747;28;20130;-59
2022/12/28 12:00:16;;;;;;;0.60;0.50;;;10.70;90.70;;;;;;5044161;28;20029;-58
2022/12/28 12:02:47;;;;;;;0.60;0.60;;;10.70;90.70;;;;;;5047560;28;20031;-59
2022/12/28 12:05:38;;;;;;;0.50;0.50;;;10.70;90.60;;;;;;5048194;28;20037;-59
2022/12/28 12:08:15;;;;;;;0.45;0.40;;;10.70;90.60;;;;;;5042139;28;20086;-59
2022/12/28 12:10:43;;;;;;;1.42;1.02;;;10.80;90.60;;;;;;5041872;28;20035;-58
2022/12/28 12:13:24;;;;;;;0.90;0.57;;;10.80;90.50;;;;;;5042411;28;20391;-64
2022/12/28 12:15:58;;;;;;;1.80;0.35;;;10.80;90.40;;;;;;5039363;28;20037;-59
2022/12/28 12:18:26;;;;;;;1.10;0.60;;;10.80;90.40;;;;;;5043715;28;20033;-59
2022/12/28 12:21:02;;;;;;;1.13;0.60;;;10.80;90.40;;;;;;5046744;28;20044;-59
2022/12/28 12:23:49;;;;;;;0.65;0.43;;;10.80;90.40;;;;;;5045115;28;20025;-59
2022/12/28 12:26:46;;;;;;;1.23;0.77;;;10.80;90.30;;;;;;5048810;28;20435;-59
2022/12/28 12:29:28;;;;;;;0.88;0.70;;;10.80;90.30;;;;;;5044350;28;20064;-59
2022/12/28 12:32:25;;;;;;;0.60;0.30;;;10.80;90.30;;;;;;5049104;28;20025;-59
2022/12/28 12:34:59;;;;;;;1.17;0.60;;;10.80;90.20;;;;;;5049135;28;20044;-59
2022/12/28 12:38:04;;;;;;;1.05;0.77;;;10.80;90.20;;;;;;5044063;28;20406;-59
2022/12/28 12:40:55;;;;;;;0.93;0.77;;;10.80;90.10;;;;;;5042709;28;20915;-64
2022/12/28 12:43:48;;;;;;;0.98;0.70;;;10.80;90.10;;;;;;5040879;28;20040;-64
2022/12/28 12:46:41;;;;;;;0.70;0.68;;;10.80;90.10;;;;;;5046622;28;20375;-64
2022/12/28 12:49:22;;;;;;;1.20;0.80;;;10.80;90.10;;;;;;5047996;28;20045;-64
2022/12/28 12:52:15;;;;;;;0.57;0.50;;;10.80;90.10;;;;;;5047159;28;20047;-59
2022/12/28 12:55:14;;;;;;;0.50;0.50;;;10.80;90.10;;;;;;5048708;28;20045;-59
2022/12/28 12:58:02;;;;;;;0.80;0.73;;;10.80;90.00;;;;;;5043572;28;20040;-64
2022/12/28 13:00:53;;;;;;;1.48;0.75;;;10.80;90.00;;;;;;5040001;28;20464;-59
2022/12/28 13:03:29;;;;;;;1.30;1.02;;;10.80;90.00;;;;;;5044838;28;20044;-58
2022/12/28 13:05:57;;;;;;;1.27;1.08;;;10.80;89.90;;;;;;5047772;28;20136;-64
2022/12/28 13:08:41;;;;;;;3.00;0.82;;;10.80;89.90;;;;;;5047441;28;20040;-59
2022/12/28 13:11:09;;;;;;;1.05;0.93;;;10.90;90.00;;;;;;5047010;28;20032;-64
2022/12/28 13:13:37;;;;;;;3.28;0.80;;;10.80;89.80;;;;;;5044212;28;20021;-65
2022/12/28 13:16:13;;;;;;;0.75;0.75;;;10.80;89.60;;;;;;5052054;28;20021;-64
2022/12/28 13:18:38;;;;;;;2.88;0.80;;;10.90;89.60;;;;;;5053305;28;20029;-65
2022/12/28 13:21:06;;;;;;;1.10;1.00;;;10.80;89.50;;;;;;5055156;28;20472;-59
2022/12/28 13:23:40;;;;;;;1.63;1.00;;;10.90;89.50;;;;;;5050177;28;20426;-65
2022/12/28 13:26:10;;;;;;;1.60;1.00;;;10.90;89.50;;;;;;5052036;28;20029;-59
2022/12/28 13:28:49;;;;;;;2.25;0.90;;;10.80;89.20;;;;;;5043189;28;20130;-59
2022/12/28 13:31:21;;;;;;;3.30;1.38;;;10.90;89.30;;;;;;5047387;28;20025;-64
2022/12/28 13:33:58;;;;;;;2.78;1.42;;;10.90;89.30;;;;;;5053045;28;20036;-65
2022/12/28 13:36:24;;;;;;;2.60;1.33;;;10.90;89.10;;;;;;5052336;28;20029;-65
2022/12/28 13:39:09;;;;;;;1.35;0.98;;;10.90;89.20;;;;;;5052015;28;20045;-59
2022/12/28 13:41:36;;;;;;;1.65;1.02;;;10.90;89.00;;;;;;5049937;28;20032;-59